createdAt,value
2023-04-02T00:05:19.871Z,3.52
2023-04-02T00:10:35.562Z,3.50
2023-04-02T00:15:42.839Z,3.40
2023-04-02T00:21:14.048Z,3.30
2023-04-02T00:26:27.008Z,3.30
2023-04-02T00:31:33.322Z,3.30
2023-04-02T00:36:38.053Z,3.26
2023-04-02T00:41:47.016Z,3.20
2023-04-02T00:46:51.708Z,3.20
2023-04-02T00:52:02.307Z,3.30
2023-04-02T00:57:22.241Z,3.20
2023-04-02T01:02:33.097Z,3.20
2023-04-02T01:08:04.891Z,3.30
2023-04-02T01:13:42.443Z,3.30
2023-04-02T01:19:18.569Z,3.30
2023-04-02T01:24:30.200Z,3.38
2023-04-02T01:30:00.855Z,3.40
2023-04-02T01:35:06.193Z,3.40
2023-04-02T01:40:54.882Z,3.48
2023-04-02T01:46:00.116Z,3.50
2023-04-02T01:51:08.538Z,3.50
2023-04-02T01:56:12.042Z,3.50
2023-04-02T02:01:23.187Z,3.50
2023-04-02T02:06:27.839Z,3.50
2023-04-02T02:11:34.037Z,3.52
2023-04-02T02:16:42.454Z,3.60
2023-04-02T02:22:05.830Z,3.60
2023-04-02T02:27:24.312Z,3.60
2023-04-02T02:32:32.372Z,3.60
2023-04-02T02:37:44.379Z,3.60
2023-04-02T02:43:02.379Z,3.60
2023-04-02T02:48:14.350Z,3.60
2023-04-02T02:53:25.019Z,3.60
2023-04-02T02:58:34.560Z,3.58
2023-04-02T03:03:39.336Z,3.58
2023-04-02T03:09:15.281Z,3.50
2023-04-02T03:14:52.960Z,3.50
2023-04-02T03:20:22.537Z,3.50
2023-04-02T03:25:37.672Z,3.50
2023-04-02T03:31:03.316Z,3.48
2023-04-02T03:36:31.867Z,3.42
2023-04-02T03:41:47.112Z,3.40
2023-04-02T03:47:01.862Z,3.40
2023-04-02T03:52:13.868Z,3.40
2023-04-02T03:57:33.477Z,3.30
2023-04-02T04:02:57.810Z,3.22
2023-04-02T04:08:07.850Z,3.20
2023-04-02T04:13:22.012Z,3.10
2023-04-02T04:18:57.475Z,3.10
2023-04-02T04:24:24.571Z,3.10
2023-04-02T04:29:45.861Z,3.00
2023-04-02T04:34:56.987Z,3.00
2023-04-02T04:40:21.494Z,3.00
2023-04-02T04:45:56.915Z,3.00
2023-04-02T04:51:15.942Z,3.00
2023-04-02T04:56:29.098Z,3.00
2023-04-02T05:16:59.547Z,3.20
2023-04-02T05:22:21.195Z,3.20
2023-04-02T05:34:27.933Z,3.24
2023-04-02T05:39:33.314Z,3.30
2023-04-02T05:45:13.886Z,3.40
2023-04-02T05:50:37.997Z,3.40
2023-04-02T05:56:17.046Z,3.46
2023-04-02T06:11:28.095Z,3.52
2023-04-02T06:41:13.450Z,3.68
2023-04-02T06:46:42.857Z,3.70
2023-04-02T07:06:20.616Z,3.70
2023-04-02T07:26:07.828Z,3.80
2023-04-02T07:31:34.100Z,3.76
2023-04-02T07:36:37.989Z,3.80
2023-04-02T07:41:57.047Z,3.80
2023-04-02T07:47:01.197Z,3.88
2023-04-02T08:06:21.602Z,4.20
2023-04-02T08:18:53.053Z,4.40
2023-04-02T08:23:57.158Z,4.48
2023-04-02T08:29:00.908Z,4.52
2023-04-02T08:34:14.065Z,4.56
2023-04-02T08:39:17.565Z,4.52
2023-04-02T08:45:24.260Z,4.50
2023-04-02T08:50:35.263Z,4.50
2023-04-02T08:56:10.333Z,4.50
2023-04-02T09:01:47.645Z,4.54
2023-04-02T09:29:16.894Z,4.60
2023-04-02T09:34:31.631Z,4.70
2023-04-02T09:48:06.993Z,4.90
2023-04-02T09:53:51.008Z,5.00
2023-04-02T09:59:13.181Z,5.08
2023-04-02T10:05:20.924Z,5.20
2023-04-02T10:10:44.858Z,5.40
2023-04-02T10:16:11.536Z,5.58
2023-04-02T10:22:47.097Z,5.84
2023-04-02T10:28:46.259Z,6.04
2023-04-02T10:34:13.012Z,6.40
2023-04-02T10:39:19.053Z,6.80
2023-04-02T10:44:43.971Z,7.00
2023-04-02T10:50:50.081Z,7.00
2023-04-02T10:56:05.351Z,7.14
2023-04-02T11:01:17.911Z,7.10
2023-04-02T11:06:45.366Z,7.20
2023-04-02T11:12:00.484Z,7.50
2023-04-02T11:17:04.706Z,7.60
2023-04-02T11:22:34.220Z,7.70
2023-04-02T11:27:39.546Z,7.70
2023-04-02T11:32:51.660Z,7.80
2023-04-02T11:39:18.695Z,8.10
2023-04-02T11:44:24.554Z,8.22
2023-04-02T11:49:41.488Z,8.20
2023-04-02T11:55:42.157Z,8.20
2023-04-02T12:00:54.929Z,8.10
2023-04-02T12:06:26.737Z,8.20
2023-04-02T12:12:47.913Z,8.50
2023-04-02T12:18:14.798Z,8.50
2023-04-02T12:24:00.331Z,8.60
2023-04-02T12:29:29.698Z,8.80
2023-04-02T12:34:35.467Z,8.80
2023-04-02T12:40:57.425Z,8.90
2023-04-02T12:53:37.935Z,9.10
2023-04-02T12:59:23.676Z,8.90
2023-04-02T13:04:27.949Z,8.90
2023-04-02T13:09:42.004Z,9.00
2023-04-02T13:14:46.646Z,9.00
2023-04-02T13:34:32.714Z,8.40
2023-04-02T13:39:38.331Z,8.40
2023-04-02T13:44:43.586Z,8.30
2023-04-02T13:49:48.948Z,8.30
2023-04-02T13:55:00.343Z,8.26
2023-04-02T14:00:06.769Z,8.36
2023-04-02T14:05:24.591Z,8.40
2023-04-02T14:10:54.741Z,8.40
2023-04-02T14:16:28.253Z,8.50
2023-04-02T14:28:58.278Z,8.50
2023-04-02T14:34:54.389Z,8.60
2023-04-02T14:40:32.440Z,8.70
2023-04-02T14:52:42.749Z,8.70
2023-04-02T14:58:10.407Z,8.80
2023-04-02T15:10:49.546Z,9.20
2023-04-02T15:16:27.141Z,9.10
2023-04-02T15:29:00.453Z,8.90
2023-04-02T15:50:07.258Z,8.20
2023-04-02T15:55:54.192Z,8.10
2023-04-02T16:02:24.866Z,8.00
2023-04-02T16:08:18.455Z,7.92
2023-04-02T16:13:37.458Z,8.00
2023-04-02T16:19:16.681Z,8.48
2023-04-02T16:24:21.070Z,9.10
2023-04-02T16:29:55.341Z,10.66
2023-04-02T16:35:42.358Z,12.10
2023-04-02T16:41:19.626Z,12.50
2023-04-02T16:46:54.437Z,12.50
2023-04-02T16:52:32.318Z,12.20
2023-04-02T16:57:56.050Z,11.60
2023-04-02T17:03:40.369Z,11.06
2023-04-02T17:09:18.080Z,10.24
2023-04-02T17:14:45.761Z,8.82
2023-04-02T17:19:56.773Z,7.86
2023-04-02T17:39:28.817Z,5.84
2023-04-02T17:44:49.587Z,5.50
2023-04-02T17:50:32.335Z,5.20
2023-04-02T17:56:06.001Z,5.00
2023-04-02T18:15:47.746Z,4.40
2023-04-02T18:21:23.226Z,4.20
2023-04-02T18:27:01.450Z,4.10
2023-04-02T18:33:07.843Z,4.00
2023-04-02T18:39:18.649Z,3.84
2023-04-02T18:44:58.787Z,3.80
2023-04-02T18:50:20.192Z,3.60
2023-04-02T18:55:32.367Z,3.50
2023-04-02T19:00:58.255Z,3.50
2023-04-02T19:20:44.898Z,3.10
2023-04-02T19:31:09.340Z,2.92
2023-04-02T19:36:28.836Z,2.90
2023-04-02T19:41:44.625Z,2.80
2023-04-02T19:47:17.418Z,2.80
2023-04-02T19:52:22.716Z,2.70
2023-04-02T20:12:17.016Z,2.50
2023-04-02T20:24:24.900Z,2.50
2023-04-02T20:29:57.451Z,2.40
2023-04-02T20:35:03.366Z,2.30
2023-04-02T20:40:09.161Z,2.20
2023-04-02T20:45:13.277Z,2.10
2023-04-02T20:50:18.195Z,2.20
2023-04-02T20:55:22.132Z,2.30
2023-04-02T21:00:26.046Z,2.18
2023-04-02T21:05:29.854Z,2.10
2023-04-02T21:10:33.945Z,2.00
2023-04-02T21:15:44.716Z,1.90
2023-04-02T21:28:34.866Z,2.10
2023-04-02T21:34:05.400Z,1.90
2023-04-02T21:44:36.186Z,1.62
2023-04-02T21:49:40.768Z,1.60
2023-04-02T21:55:42.528Z,1.60
2023-04-02T22:00:46.570Z,1.80
2023-04-02T22:05:51.097Z,1.68
2023-04-02T22:10:55.258Z,1.50
2023-04-02T22:23:05.874Z,1.30
2023-04-02T22:35:31.729Z,1.50
2023-04-02T22:40:51.017Z,1.40
2023-04-02T22:45:54.597Z,1.30
2023-04-02T22:55:27.363Z,1.02
2023-04-02T23:25:21.409Z,0.90
2023-04-02T23:41:51.824Z,0.80
2023-04-02T23:46:56.113Z,0.70
2023-04-02T23:51:59.664Z,0.60
